sensor_id;sensor_type;location;lat;lon;timestamp;P1;durP1;ratioP1;P2;durP2;ratioP2
54263;SDS011;40178;53.042;6.406;2022-09-09T00:00:45;11.07;;;6.45;;
54263;SDS011;40178;53.042;6.406;2022-09-09T00:03:26;12.40;;;6.47;;
54263;SDS011;40178;53.042;6.406;2022-09-09T00:05:57;12.75;;;5.93;;
54263;SDS011;40178;53.042;6.406;2022-09-09T00:08:44;12.45;;;6.57;;
54263;SDS011;40178;53.042;6.406;2022-09-09T00:11:36;12.20;;;6.35;;
54263;SDS011;40178;53.042;6.406;2022-09-09T00:14:33;13.00;;;6.25;;
54263;SDS011;40178;53.042;6.406;2022-09-09T00:17:02;12.05;;;6.57;;
54263;SDS011;40178;53.042;6.406;2022-09-09T00:19:38;12.93;;;6.00;;
54263;SDS011;40178;53.042;6.406;2022-09-09T00:22:21;11.38;;;6.18;;
54263;SDS011;40178;53.042;6.406;2022-09-09T00:24:49;12.52;;;6.20;;
54263;SDS011;40178;53.042;6.406;2022-09-09T00:27:26;16.10;;;6.20;;
54263;SDS011;40178;53.042;6.406;2022-09-09T00:29:56;13.80;;;6.32;;
54263;SDS011;40178;53.042;6.406;2022-09-09T00:32:28;11.25;;;5.90;;
54263;SDS011;40178;53.042;6.406;2022-09-09T00:34:58;10.32;;;5.47;;
54263;SDS011;40178;53.042;6.406;2022-09-09T00:37:28;9.15;;;5.43;;
54263;SDS011;40178;53.042;6.406;2022-09-09T00:39:57;12.55;;;5.90;;
54263;SDS011;40178;53.042;6.406;2022-09-09T00:48:11;10.57;;;5.00;;
54263;SDS011;40178;53.042;6.406;2022-09-09T00:53:22;16.88;;;5.18;;
54263;SDS011;40178;53.042;6.406;2022-09-09T00:56:24;11.00;;;4.97;;
54263;SDS011;40178;53.042;6.406;2022-09-09T01:01:47;9.98;;;5.22;;
54263;SDS011;40178;53.042;6.406;2022-09-09T01:04:16;11.65;;;5.47;;
54263;SDS011;40178;53.042;6.406;2022-09-09T01:06:46;12.57;;;5.50;;
54263;SDS011;40178;53.042;6.406;2022-09-09T01:09:34;11.10;;;5.10;;
54263;SDS011;40178;53.042;6.406;2022-09-09T01:12:23;11.90;;;5.38;;
54263;SDS011;40178;53.042;6.406;2022-09-09T01:15:03;10.90;;;5.45;;
54263;SDS011;40178;53.042;6.406;2022-09-09T01:28:28;14.27;;;5.80;;
54263;SDS011;40178;53.042;6.406;2022-09-09T01:30:56;12.40;;;5.47;;
54263;SDS011;40178;53.042;6.406;2022-09-09T01:33:23;10.88;;;6.47;;
54263;SDS011;40178;53.042;6.406;2022-09-09T01:35:54;12.20;;;5.93;;
54263;SDS011;40178;53.042;6.406;2022-09-09T01:38:25;12.68;;;5.90;;
54263;SDS011;40178;53.042;6.406;2022-09-09T01:40:52;9.77;;;5.30;;
54263;SDS011;40178;53.042;6.406;2022-09-09T01:43:21;11.30;;;5.07;;
54263;SDS011;40178;53.042;6.406;2022-09-09T01:45:49;12.20;;;5.57;;
54263;SDS011;40178;53.042;6.406;2022-09-09T01:48:19;12.38;;;6.20;;
54263;SDS011;40178;53.042;6.406;2022-09-09T01:50:46;14.35;;;7.28;;
54263;SDS011;40178;53.042;6.406;2022-09-09T01:53:11;12.90;;;6.97;;
54263;SDS011;40178;53.042;6.406;2022-09-09T01:55:39;16.38;;;7.68;;
54263;SDS011;40178;53.042;6.406;2022-09-09T01:58:13;14.30;;;7.35;;
54263;SDS011;40178;53.042;6.406;2022-09-09T02:03:32;15.55;;;7.50;;
54263;SDS011;40178;53.042;6.406;2022-09-09T02:06:04;16.67;;;8.55;;
54263;SDS011;40178;53.042;6.406;2022-09-09T02:08:38;16.08;;;7.72;;
54263;SDS011;40178;53.042;6.406;2022-09-09T02:11:14;14.43;;;7.32;;
54263;SDS011;40178;53.042;6.406;2022-09-09T02:13:41;21.67;;;8.25;;
54263;SDS011;40178;53.042;6.406;2022-09-09T02:18:54;15.57;;;8.00;;
54263;SDS011;40178;53.042;6.406;2022-09-09T02:21:22;20.38;;;8.05;;
54263;SDS011;40178;53.042;6.406;2022-09-09T02:23:49;17.20;;;7.70;;
54263;SDS011;40178;53.042;6.406;2022-09-09T02:26:18;14.93;;;7.60;;
54263;SDS011;40178;53.042;6.406;2022-09-09T02:28:48;18.75;;;7.38;;
54263;SDS011;40178;53.042;6.406;2022-09-09T02:31:17;13.02;;;7.07;;
54263;SDS011;40178;53.042;6.406;2022-09-09T02:33:46;14.55;;;7.32;;
54263;SDS011;40178;53.042;6.406;2022-09-09T02:36:14;16.90;;;8.10;;
54263;SDS011;40178;53.042;6.406;2022-09-09T02:38:42;14.35;;;7.53;;
54263;SDS011;40178;53.042;6.406;2022-09-09T02:41:15;13.60;;;6.85;;
54263;SDS011;40178;53.042;6.406;2022-09-09T02:43:46;15.88;;;7.22;;
54263;SDS011;40178;53.042;6.406;2022-09-09T02:51:40;13.85;;;6.75;;
54263;SDS011;40178;53.042;6.406;2022-09-09T02:54:35;16.45;;;7.85;;
54263;SDS011;40178;53.042;6.406;2022-09-09T02:57:06;13.15;;;6.70;;
54263;SDS011;40178;53.042;6.406;2022-09-09T02:59:36;14.27;;;6.75;;
54263;SDS011;40178;53.042;6.406;2022-09-09T03:02:03;14.55;;;6.93;;
54263;SDS011;40178;53.042;6.406;2022-09-09T03:04:29;12.23;;;6.60;;
54263;SDS011;40178;53.042;6.406;2022-09-09T03:06:56;11.95;;;6.30;;
54263;SDS011;40178;53.042;6.406;2022-09-09T03:09:22;12.13;;;6.03;;
54263;SDS011;40178;53.042;6.406;2022-09-09T03:11:48;12.35;;;5.85;;
54263;SDS011;40178;53.042;6.406;2022-09-09T03:14:14;11.02;;;5.70;;
54263;SDS011;40178;53.042;6.406;2022-09-09T03:16:40;11.82;;;5.50;;
54263;SDS011;40178;53.042;6.406;2022-09-09T03:19:08;12.63;;;6.25;;
54263;SDS011;40178;53.042;6.406;2022-09-09T03:21:33;13.40;;;5.68;;
54263;SDS011;40178;53.042;6.406;2022-09-09T03:23:59;13.30;;;5.85;;
54263;SDS011;40178;53.042;6.406;2022-09-09T03:26:25;11.10;;;5.72;;
54263;SDS011;40178;53.042;6.406;2022-09-09T03:28:50;11.30;;;5.13;;
54263;SDS011;40178;53.042;6.406;2022-09-09T03:31:17;11.90;;;4.93;;
54263;SDS011;40178;53.042;6.406;2022-09-09T03:33:44;11.73;;;5.03;;
54263;SDS011;40178;53.042;6.406;2022-09-09T03:36:10;12.63;;;5.22;;
54263;SDS011;40178;53.042;6.406;2022-09-09T03:38:35;11.18;;;5.18;;
54263;SDS011;40178;53.042;6.406;2022-09-09T03:41:01;11.50;;;5.22;;
54263;SDS011;40178;53.042;6.406;2022-09-09T03:43:27;10.65;;;4.57;;
54263;SDS011;40178;53.042;6.406;2022-09-09T03:45:54;9.50;;;4.43;;
54263;SDS011;40178;53.042;6.406;2022-09-09T03:48:21;11.40;;;4.22;;
54263;SDS011;40178;53.042;6.406;2022-09-09T03:50:48;11.43;;;4.47;;
54263;SDS011;40178;53.042;6.406;2022-09-09T03:53:16;11.40;;;4.80;;
54263;SDS011;40178;53.042;6.406;2022-09-09T03:55:51;10.20;;;4.80;;
54263;SDS011;40178;53.042;6.406;2022-09-09T03:58:19;11.57;;;5.00;;
54263;SDS011;40178;53.042;6.406;2022-09-09T04:00:56;11.20;;;5.40;;
54263;SDS011;40178;53.042;6.406;2022-09-09T04:03:23;13.32;;;4.43;;
54263;SDS011;40178;53.042;6.406;2022-09-09T04:05:53;10.35;;;4.80;;
54263;SDS011;40178;53.042;6.406;2022-09-09T04:08:20;10.88;;;4.45;;
54263;SDS011;40178;53.042;6.406;2022-09-09T04:10:47;12.93;;;5.55;;
54263;SDS011;40178;53.042;6.406;2022-09-09T04:13:14;9.20;;;4.05;;
54263;SDS011;40178;53.042;6.406;2022-09-09T04:15:43;11.45;;;4.95;;
54263;SDS011;40178;53.042;6.406;2022-09-09T04:18:10;12.00;;;5.38;;
54263;SDS011;40178;53.042;6.406;2022-09-09T04:20:36;9.32;;;4.53;;
54263;SDS011;40178;53.042;6.406;2022-09-09T04:23:03;14.07;;;5.13;;
54263;SDS011;40178;53.042;6.406;2022-09-09T04:25:29;11.75;;;5.43;;
54263;SDS011;40178;53.042;6.406;2022-09-09T04:27:55;10.88;;;5.28;;
54263;SDS011;40178;53.042;6.406;2022-09-09T04:30:22;13.02;;;5.88;;
54263;SDS011;40178;53.042;6.406;2022-09-09T04:32:48;12.38;;;5.93;;
54263;SDS011;40178;53.042;6.406;2022-09-09T04:35:14;12.32;;;5.15;;
54263;SDS011;40178;53.042;6.406;2022-09-09T04:37:40;14.25;;;6.05;;
54263;SDS011;40178;53.042;6.406;2022-09-09T04:40:06;13.73;;;6.15;;
54263;SDS011;40178;53.042;6.406;2022-09-09T04:42:38;13.18;;;5.45;;
54263;SDS011;40178;53.042;6.406;2022-09-09T04:45:05;11.30;;;5.30;;
54263;SDS011;40178;53.042;6.406;2022-09-09T04:47:31;13.88;;;5.82;;
54263;SDS011;40178;53.042;6.406;2022-09-09T04:49:57;13.88;;;6.20;;
54263;SDS011;40178;53.042;6.406;2022-09-09T04:52:23;11.57;;;5.53;;
54263;SDS011;40178;53.042;6.406;2022-09-09T04:54:48;13.35;;;5.50;;
54263;SDS011;40178;53.042;6.406;2022-09-09T04:57:14;11.90;;;5.45;;
54263;SDS011;40178;53.042;6.406;2022-09-09T04:59:40;13.95;;;5.90;;
54263;SDS011;40178;53.042;6.406;2022-09-09T05:02:05;14.77;;;6.65;;
54263;SDS011;40178;53.042;6.406;2022-09-09T05:04:31;14.75;;;5.97;;
54263;SDS011;40178;53.042;6.406;2022-09-09T05:06:58;13.55;;;6.22;;
54263;SDS011;40178;53.042;6.406;2022-09-09T05:09:24;15.90;;;6.30;;
54263;SDS011;40178;53.042;6.406;2022-09-09T05:11:50;14.93;;;6.45;;
54263;SDS011;40178;53.042;6.406;2022-09-09T05:14:16;14.35;;;6.43;;
54263;SDS011;40178;53.042;6.406;2022-09-09T05:16:43;11.07;;;5.88;;
54263;SDS011;40178;53.042;6.406;2022-09-09T05:19:10;16.60;;;6.47;;
54263;SDS011;40178;53.042;6.406;2022-09-09T05:21:35;14.43;;;7.05;;
54263;SDS011;40178;53.042;6.406;2022-09-09T05:24:01;14.85;;;6.82;;
54263;SDS011;40178;53.042;6.406;2022-09-09T05:26:27;14.10;;;7.28;;
54263;SDS011;40178;53.042;6.406;2022-09-09T05:28:54;15.32;;;7.25;;
54263;SDS011;40178;53.042;6.406;2022-09-09T05:31:20;15.45;;;6.88;;
54263;SDS011;40178;53.042;6.406;2022-09-09T05:33:46;15.48;;;6.90;;
54263;SDS011;40178;53.042;6.406;2022-09-09T05:36:13;18.20;;;8.32;;
54263;SDS011;40178;53.042;6.406;2022-09-09T05:38:41;16.30;;;7.72;;
54263;SDS011;40178;53.042;6.406;2022-09-09T05:41:08;14.82;;;6.65;;
54263;SDS011;40178;53.042;6.406;2022-09-09T05:43:36;16.42;;;7.18;;
54263;SDS011;40178;53.042;6.406;2022-09-09T05:46:04;16.95;;;6.70;;
54263;SDS011;40178;53.042;6.406;2022-09-09T05:48:31;15.15;;;7.57;;
54263;SDS011;40178;53.042;6.406;2022-09-09T05:50:59;17.17;;;7.38;;
54263;SDS011;40178;53.042;6.406;2022-09-09T05:53:28;15.93;;;6.60;;
54263;SDS011;40178;53.042;6.406;2022-09-09T05:55:59;14.10;;;6.63;;
54263;SDS011;40178;53.042;6.406;2022-09-09T05:58:30;13.23;;;6.00;;
54263;SDS011;40178;53.042;6.406;2022-09-09T06:01:00;21.50;;;6.85;;
54263;SDS011;40178;53.042;6.406;2022-09-09T06:03:31;15.27;;;7.00;;
54263;SDS011;40178;53.042;6.406;2022-09-09T06:06:02;11.23;;;6.18;;
54263;SDS011;40178;53.042;6.406;2022-09-09T06:08:32;15.25;;;6.55;;
54263;SDS011;40178;53.042;6.406;2022-09-09T06:11:06;13.32;;;6.60;;
54263;SDS011;40178;53.042;6.406;2022-09-09T06:13:33;13.60;;;6.38;;
54263;SDS011;40178;53.042;6.406;2022-09-09T06:15:58;12.90;;;5.63;;
54263;SDS011;40178;53.042;6.406;2022-09-09T06:18:25;16.23;;;6.10;;
54263;SDS011;40178;53.042;6.406;2022-09-09T06:23:20;14.43;;;5.97;;
54263;SDS011;40178;53.042;6.406;2022-09-09T06:25:46;11.57;;;5.97;;
54263;SDS011;40178;53.042;6.406;2022-09-09T06:28:12;13.13;;;5.90;;
54263;SDS011;40178;53.042;6.406;2022-09-09T06:30:38;10.93;;;5.60;;
54263;SDS011;40178;53.042;6.406;2022-09-09T06:33:05;11.25;;;5.60;;
54263;SDS011;40178;53.042;6.406;2022-09-09T06:35:30;11.35;;;5.10;;
54263;SDS011;40178;53.042;6.406;2022-09-09T06:37:56;12.70;;;5.47;;
54263;SDS011;40178;53.042;6.406;2022-09-09T06:40:23;11.70;;;5.88;;
54263;SDS011;40178;53.042;6.406;2022-09-09T06:42:49;11.35;;;5.78;;
54263;SDS011;40178;53.042;6.406;2022-09-09T06:45:15;10.23;;;5.60;;
54263;SDS011;40178;53.042;6.406;2022-09-09T06:47:42;10.10;;;5.82;;
54263;SDS011;40178;53.042;6.406;2022-09-09T06:50:08;10.38;;;5.75;;
54263;SDS011;40178;53.042;6.406;2022-09-09T06:52:36;14.02;;;5.82;;
54263;SDS011;40178;53.042;6.406;2022-09-09T06:55:01;12.05;;;5.75;;
54263;SDS011;40178;53.042;6.406;2022-09-09T06:57:28;9.35;;;4.90;;
54263;SDS011;40178;53.042;6.406;2022-09-09T06:59:53;11.18;;;5.47;;
54263;SDS011;40178;53.042;6.406;2022-09-09T07:02:19;13.20;;;5.35;;
54263;SDS011;40178;53.042;6.406;2022-09-09T07:04:45;12.43;;;5.90;;
54263;SDS011;40178;53.042;6.406;2022-09-09T07:07:10;11.65;;;6.32;;
54263;SDS011;40178;53.042;6.406;2022-09-09T07:09:38;9.52;;;4.75;;
54263;SDS011;40178;53.042;6.406;2022-09-09T07:12:05;12.43;;;5.78;;
54263;SDS011;40178;53.042;6.406;2022-09-09T07:14:31;10.23;;;4.80;;
54263;SDS011;40178;53.042;6.406;2022-09-09T07:16:58;11.27;;;5.32;;
54263;SDS011;40178;53.042;6.406;2022-09-09T07:19:25;11.93;;;5.38;;
54263;SDS011;40178;53.042;6.406;2022-09-09T07:21:50;10.98;;;4.97;;
54263;SDS011;40178;53.042;6.406;2022-09-09T07:24:16;10.82;;;4.75;;
54263;SDS011;40178;53.042;6.406;2022-09-09T07:26:42;9.73;;;4.88;;
54263;SDS011;40178;53.042;6.406;2022-09-09T07:29:09;12.27;;;5.20;;
54263;SDS011;40178;53.042;6.406;2022-09-09T07:31:35;10.88;;;5.35;;
54263;SDS011;40178;53.042;6.406;2022-09-09T07:34:02;12.52;;;5.07;;
54263;SDS011;40178;53.042;6.406;2022-09-09T07:36:32;12.05;;;5.22;;
54263;SDS011;40178;53.042;6.406;2022-09-09T07:39:00;10.60;;;5.25;;
54263;SDS011;40178;53.042;6.406;2022-09-09T07:43:55;10.00;;;4.65;;
54263;SDS011;40178;53.042;6.406;2022-09-09T07:46:23;13.52;;;4.80;;
54263;SDS011;40178;53.042;6.406;2022-09-09T07:48:50;10.07;;;4.78;;
54263;SDS011;40178;53.042;6.406;2022-09-09T07:51:19;8.75;;;4.93;;
54263;SDS011;40178;53.042;6.406;2022-09-09T07:53:47;10.63;;;4.00;;
54263;SDS011;40178;53.042;6.406;2022-09-09T07:56:15;11.60;;;4.63;;
54263;SDS011;40178;53.042;6.406;2022-09-09T07:58:48;10.83;;;4.60;;
54263;SDS011;40178;53.042;6.406;2022-09-09T08:01:18;9.25;;;4.28;;
54263;SDS011;40178;53.042;6.406;2022-09-09T08:03:47;9.68;;;4.45;;
54263;SDS011;40178;53.042;6.406;2022-09-09T08:06:18;9.82;;;4.13;;
54263;SDS011;40178;53.042;6.406;2022-09-09T08:08:44;9.80;;;4.65;;
54263;SDS011;40178;53.042;6.406;2022-09-09T08:11:14;8.82;;;3.78;;
54263;SDS011;40178;53.042;6.406;2022-09-09T08:13:41;7.97;;;4.10;;
54263;SDS011;40178;53.042;6.406;2022-09-09T08:16:09;9.27;;;4.20;;
54263;SDS011;40178;53.042;6.406;2022-09-09T08:18:37;10.27;;;3.83;;
54263;SDS011;40178;53.042;6.406;2022-09-09T08:21:04;12.30;;;4.68;;
54263;SDS011;40178;53.042;6.406;2022-09-09T08:23:31;11.38;;;4.20;;
54263;SDS011;40178;53.042;6.406;2022-09-09T08:26:03;8.23;;;4.28;;
54263;SDS011;40178;53.042;6.406;2022-09-09T08:28:39;8.90;;;4.45;;
54263;SDS011;40178;53.042;6.406;2022-09-09T08:31:12;7.60;;;4.13;;
54263;SDS011;40178;53.042;6.406;2022-09-09T08:33:40;10.40;;;4.53;;
54263;SDS011;40178;53.042;6.406;2022-09-09T08:36:08;12.02;;;4.63;;
54263;SDS011;40178;53.042;6.406;2022-09-09T08:38:35;10.45;;;4.20;;
54263;SDS011;40178;53.042;6.406;2022-09-09T08:41:08;11.02;;;4.63;;
54263;SDS011;40178;53.042;6.406;2022-09-09T08:46:46;8.38;;;3.70;;
54263;SDS011;40178;53.042;6.406;2022-09-09T08:52:25;9.15;;;4.32;;
54263;SDS011;40178;53.042;6.406;2022-09-09T08:55:11;8.30;;;4.30;;
54263;SDS011;40178;53.042;6.406;2022-09-09T08:57:54;10.07;;;3.65;;
54263;SDS011;40178;53.042;6.406;2022-09-09T09:00:22;8.05;;;3.60;;
54263;SDS011;40178;53.042;6.406;2022-09-09T09:02:56;10.75;;;3.03;;
54263;SDS011;40178;53.042;6.406;2022-09-09T09:08:20;8.38;;;3.15;;
54263;SDS011;40178;53.042;6.406;2022-09-09T09:10:54;5.85;;;2.85;;
54263;SDS011;40178;53.042;6.406;2022-09-09T09:18:57;7.50;;;3.03;;
54263;SDS011;40178;53.042;6.406;2022-09-09T09:23:59;7.90;;;2.60;;
54263;SDS011;40178;53.042;6.406;2022-09-09T09:26:30;6.90;;;2.60;;
54263;SDS011;40178;53.042;6.406;2022-09-09T09:28:58;11.13;;;2.45;;
54263;SDS011;40178;53.042;6.406;2022-09-09T09:31:26;11.25;;;2.85;;
54263;SDS011;40178;53.042;6.406;2022-09-09T09:33:55;6.38;;;2.60;;
54263;SDS011;40178;53.042;6.406;2022-09-09T09:36:32;7.72;;;2.25;;
54263;SDS011;40178;53.042;6.406;2022-09-09T09:39:00;8.02;;;2.58;;
54263;SDS011;40178;53.042;6.406;2022-09-09T09:41:35;6.55;;;2.45;;
54263;SDS011;40178;53.042;6.406;2022-09-09T09:44:03;6.85;;;2.75;;
54263;SDS011;40178;53.042;6.406;2022-09-09T09:46:31;8.05;;;3.00;;
54263;SDS011;40178;53.042;6.406;2022-09-09T09:49:04;6.78;;;2.45;;
54263;SDS011;40178;53.042;6.406;2022-09-09T09:51:31;8.00;;;2.47;;
54263;SDS011;40178;53.042;6.406;2022-09-09T09:56:43;7.97;;;2.30;;
54263;SDS011;40178;53.042;6.406;2022-09-09T09:59:23;5.13;;;1.92;;
54263;SDS011;40178;53.042;6.406;2022-09-09T10:02:06;7.47;;;2.40;;
54263;SDS011;40178;53.042;6.406;2022-09-09T10:04:37;5.65;;;2.33;;
54263;SDS011;40178;53.042;6.406;2022-09-09T10:07:13;10.10;;;2.25;;
54263;SDS011;40178;53.042;6.406;2022-09-09T10:09:51;7.97;;;2.03;;
54263;SDS011;40178;53.042;6.406;2022-09-09T10:20:34;7.50;;;2.25;;
54263;SDS011;40178;53.042;6.406;2022-09-09T10:36:58;3.60;;;1.63;;
54263;SDS011;40178;53.042;6.406;2022-09-09T10:42:03;4.30;;;1.73;;
54263;SDS011;40178;53.042;6.406;2022-09-09T10:55:42;5.75;;;1.42;;
54263;SDS011;40178;53.042;6.406;2022-09-09T10:58:12;6.55;;;1.70;;
54263;SDS011;40178;53.042;6.406;2022-09-09T11:00:47;4.65;;;1.85;;
54263;SDS011;40178;53.042;6.406;2022-09-09T11:03:22;6.15;;;1.30;;
54263;SDS011;40178;53.042;6.406;2022-09-09T11:05:57;4.45;;;1.55;;
54263;SDS011;40178;53.042;6.406;2022-09-09T11:08:25;6.72;;;1.92;;
54263;SDS011;40178;53.042;6.406;2022-09-09T11:10:57;7.25;;;1.65;;
54263;SDS011;40178;53.042;6.406;2022-09-09T11:21:28;11.88;;;2.45;;
54263;SDS011;40178;53.042;6.406;2022-09-09T11:24:05;4.40;;;1.10;;
54263;SDS011;40178;53.042;6.406;2022-09-09T11:26:38;4.63;;;1.15;;
54263;SDS011;40178;53.042;6.406;2022-09-09T11:41:05;7.13;;;1.80;;
54263;SDS011;40178;53.042;6.406;2022-09-09T11:43:44;5.10;;;1.55;;
54263;SDS011;40178;53.042;6.406;2022-09-09T11:46:13;4.05;;;1.50;;
54263;SDS011;40178;53.042;6.406;2022-09-09T11:48:46;5.30;;;1.27;;
54263;SDS011;40178;53.042;6.406;2022-09-09T11:59:25;6.03;;;1.52;;
54263;SDS011;40178;53.042;6.406;2022-09-09T12:01:57;9.98;;;1.63;;
54263;SDS011;40178;53.042;6.406;2022-09-09T12:07:04;4.45;;;1.35;;
54263;SDS011;40178;53.042;6.406;2022-09-09T12:09:41;4.85;;;1.10;;
54263;SDS011;40178;53.042;6.406;2022-09-09T12:12:22;4.47;;;1.02;;
54263;SDS011;40178;53.042;6.406;2022-09-09T12:15:16;3.08;;;1.20;;
54263;SDS011;40178;53.042;6.406;2022-09-09T12:20:23;6.38;;;1.33;;
54263;SDS011;40178;53.042;6.406;2022-09-09T12:23:12;7.18;;;1.33;;
54263;SDS011;40178;53.042;6.406;2022-09-09T12:25:58;5.40;;;1.30;;
54263;SDS011;40178;53.042;6.406;2022-09-09T12:37:03;6.10;;;1.13;;
54263;SDS011;40178;53.042;6.406;2022-09-09T12:39:41;7.53;;;2.00;;
54263;SDS011;40178;53.042;6.406;2022-09-09T12:42:20;4.25;;;1.30;;
54263;SDS011;40178;53.042;6.406;2022-09-09T12:44:50;4.38;;;1.23;;
54263;SDS011;40178;53.042;6.406;2022-09-09T12:47:20;6.65;;;1.17;;
54263;SDS011;40178;53.042;6.406;2022-09-09T12:50:16;3.65;;;1.02;;
54263;SDS011;40178;53.042;6.406;2022-09-09T12:52:46;4.60;;;1.23;;
54263;SDS011;40178;53.042;6.406;2022-09-09T12:55:19;5.60;;;1.27;;
54263;SDS011;40178;53.042;6.406;2022-09-09T12:57:46;6.78;;;1.30;;
54263;SDS011;40178;53.042;6.406;2022-09-09T13:00:16;4.82;;;0.90;;
54263;SDS011;40178;53.042;6.406;2022-09-09T13:02:52;2.95;;;0.95;;
54263;SDS011;40178;53.042;6.406;2022-09-09T13:07:49;3.45;;;0.98;;
54263;SDS011;40178;53.042;6.406;2022-09-09T13:10:20;3.25;;;0.98;;
54263;SDS011;40178;53.042;6.406;2022-09-09T13:12:49;7.68;;;1.50;;
54263;SDS011;40178;53.042;6.406;2022-09-09T13:15:33;5.60;;;1.08;;
54263;SDS011;40178;53.042;6.406;2022-09-09T13:18:06;2.30;;;0.95;;
54263;SDS011;40178;53.042;6.406;2022-09-09T13:20:37;2.63;;;0.85;;
54263;SDS011;40178;53.042;6.406;2022-09-09T13:23:04;7.75;;;1.75;;
54263;SDS011;40178;53.042;6.406;2022-09-09T13:25:29;6.45;;;1.17;;
54263;SDS011;40178;53.042;6.406;2022-09-09T13:28:02;3.67;;;0.63;;
54263;SDS011;40178;53.042;6.406;2022-09-09T13:30:30;5.43;;;1.00;;
54263;SDS011;40178;53.042;6.406;2022-09-09T13:35:34;3.28;;;0.93;;
54263;SDS011;40178;53.042;6.406;2022-09-09T13:38:13;5.00;;;0.90;;
54263;SDS011;40178;53.042;6.406;2022-09-09T13:40:40;3.95;;;1.13;;
54263;SDS011;40178;53.042;6.406;2022-09-09T13:43:19;5.20;;;1.30;;
54263;SDS011;40178;53.042;6.406;2022-09-09T13:45:54;4.18;;;1.10;;
54263;SDS011;40178;53.042;6.406;2022-09-09T13:48:21;5.33;;;1.30;;
54263;SDS011;40178;53.042;6.406;2022-09-09T13:51:01;5.05;;;1.20;;
54263;SDS011;40178;53.042;6.406;2022-09-09T13:53:30;5.10;;;1.20;;
54263;SDS011;40178;53.042;6.406;2022-09-09T13:55:56;5.70;;;1.40;;
54263;SDS011;40178;53.042;6.406;2022-09-09T13:58:22;6.82;;;1.08;;
54263;SDS011;40178;53.042;6.406;2022-09-09T14:00:50;5.88;;;1.23;;
54263;SDS011;40178;53.042;6.406;2022-09-09T14:03:17;4.20;;;0.98;;
54263;SDS011;40178;53.042;6.406;2022-09-09T14:05:43;4.47;;;1.85;;
54263;SDS011;40178;53.042;6.406;2022-09-09T14:08:11;4.72;;;1.48;;
54263;SDS011;40178;53.042;6.406;2022-09-09T14:10:43;3.00;;;0.93;;
54263;SDS011;40178;53.042;6.406;2022-09-09T14:13:09;6.32;;;1.17;;
54263;SDS011;40178;53.042;6.406;2022-09-09T14:15:37;4.22;;;1.10;;
54263;SDS011;40178;53.042;6.406;2022-09-09T14:18:02;4.47;;;1.10;;
54263;SDS011;40178;53.042;6.406;2022-09-09T14:20:28;6.93;;;0.98;;
54263;SDS011;40178;53.042;6.406;2022-09-09T14:22:54;4.00;;;1.10;;
54263;SDS011;40178;53.042;6.406;2022-09-09T14:25:19;3.13;;;0.90;;
54263;SDS011;40178;53.042;6.406;2022-09-09T14:27:45;3.53;;;0.80;;
54263;SDS011;40178;53.042;6.406;2022-09-09T14:30:11;2.15;;;0.60;;
54263;SDS011;40178;53.042;6.406;2022-09-09T14:32:37;1.70;;;0.50;;
54263;SDS011;40178;53.042;6.406;2022-09-09T14:35:03;3.15;;;0.68;;
54263;SDS011;40178;53.042;6.406;2022-09-09T14:37:28;2.45;;;0.50;;
54263;SDS011;40178;53.042;6.406;2022-09-09T14:39:56;2.28;;;0.47;;
54263;SDS011;40178;53.042;6.406;2022-09-09T14:42:21;2.63;;;0.70;;
54263;SDS011;40178;53.042;6.406;2022-09-09T14:44:48;2.10;;;0.57;;
54263;SDS011;40178;53.042;6.406;2022-09-09T14:47:14;2.72;;;0.50;;
54263;SDS011;40178;53.042;6.406;2022-09-09T14:49:39;2.53;;;0.73;;
54263;SDS011;40178;53.042;6.406;2022-09-09T14:52:05;1.83;;;0.50;;
54263;SDS011;40178;53.042;6.406;2022-09-09T14:54:31;2.40;;;0.60;;
54263;SDS011;40178;53.042;6.406;2022-09-09T14:56:57;0.70;;;0.40;;
54263;SDS011;40178;53.042;6.406;2022-09-09T14:59:23;2.00;;;0.50;;
54263;SDS011;40178;53.042;6.406;2022-09-09T15:01:49;5.07;;;0.65;;
54263;SDS011;40178;53.042;6.406;2022-09-09T15:04:15;1.42;;;0.50;;
54263;SDS011;40178;53.042;6.406;2022-09-09T15:06:41;2.67;;;0.60;;
54263;SDS011;40178;53.042;6.406;2022-09-09T15:09:09;2.90;;;0.88;;
54263;SDS011;40178;53.042;6.406;2022-09-09T15:11:36;3.85;;;0.77;;
54263;SDS011;40178;53.042;6.406;2022-09-09T15:14:03;2.95;;;0.50;;
54263;SDS011;40178;53.042;6.406;2022-09-09T15:16:29;1.75;;;0.50;;
54263;SDS011;40178;53.042;6.406;2022-09-09T15:18:57;3.83;;;0.60;;
54263;SDS011;40178;53.042;6.406;2022-09-09T15:21:25;3.50;;;0.70;;
54263;SDS011;40178;53.042;6.406;2022-09-09T15:23:52;3.03;;;0.70;;
54263;SDS011;40178;53.042;6.406;2022-09-09T15:26:18;2.42;;;0.63;;
54263;SDS011;40178;53.042;6.406;2022-09-09T15:28:45;2.83;;;0.80;;
54263;SDS011;40178;53.042;6.406;2022-09-09T15:31:16;1.95;;;0.50;;
54263;SDS011;40178;53.042;6.406;2022-09-09T15:33:50;1.88;;;0.50;;
54263;SDS011;40178;53.042;6.406;2022-09-09T15:36:26;2.15;;;0.70;;
54263;SDS011;40178;53.042;6.406;2022-09-09T15:38:57;2.45;;;0.50;;
54263;SDS011;40178;53.042;6.406;2022-09-09T15:41:23;2.13;;;0.60;;
54263;SDS011;40178;53.042;6.406;2022-09-09T15:43:50;1.50;;;0.60;;
54263;SDS011;40178;53.042;6.406;2022-09-09T15:51:41;3.97;;;0.70;;
54263;SDS011;40178;53.042;6.406;2022-09-09T15:54:09;4.43;;;1.25;;
54263;SDS011;40178;53.042;6.406;2022-09-09T15:56:39;4.78;;;0.85;;
54263;SDS011;40178;53.042;6.406;2022-09-09T15:59:05;1.77;;;0.63;;
54263;SDS011;40178;53.042;6.406;2022-09-09T16:01:31;3.28;;;0.70;;
54263;SDS011;40178;53.042;6.406;2022-09-09T16:03:58;2.28;;;0.85;;
54263;SDS011;40178;53.042;6.406;2022-09-09T16:06:25;2.22;;;0.70;;
54263;SDS011;40178;53.042;6.406;2022-09-09T16:08:53;2.00;;;0.73;;
54263;SDS011;40178;53.042;6.406;2022-09-09T16:11:28;2.88;;;0.68;;
54263;SDS011;40178;53.042;6.406;2022-09-09T16:13:58;2.88;;;0.77;;
54263;SDS011;40178;53.042;6.406;2022-09-09T16:16:24;3.90;;;1.17;;
54263;SDS011;40178;53.042;6.406;2022-09-09T16:18:53;2.97;;;0.90;;
54263;SDS011;40178;53.042;6.406;2022-09-09T16:21:25;1.85;;;0.70;;
54263;SDS011;40178;53.042;6.406;2022-09-09T16:23:54;3.67;;;1.00;;
54263;SDS011;40178;53.042;6.406;2022-09-09T16:26:20;3.08;;;1.10;;
54263;SDS011;40178;53.042;6.406;2022-09-09T16:28:47;2.08;;;0.90;;
54263;SDS011;40178;53.042;6.406;2022-09-09T16:31:17;2.10;;;0.80;;
54263;SDS011;40178;53.042;6.406;2022-09-09T16:33:45;5.13;;;1.60;;
54263;SDS011;40178;53.042;6.406;2022-09-09T16:36:13;5.60;;;1.20;;
54263;SDS011;40178;53.042;6.406;2022-09-09T16:38:40;3.28;;;0.80;;
54263;SDS011;40178;53.042;6.406;2022-09-09T16:41:06;5.05;;;1.30;;
54263;SDS011;40178;53.042;6.406;2022-09-09T16:43:33;4.45;;;1.15;;
54263;SDS011;40178;53.042;6.406;2022-09-09T16:46:00;2.42;;;0.88;;
54263;SDS011;40178;53.042;6.406;2022-09-09T16:48:30;5.80;;;1.00;;
54263;SDS011;40178;53.042;6.406;2022-09-09T16:51:04;2.45;;;0.80;;
54263;SDS011;40178;53.042;6.406;2022-09-09T16:53:32;3.42;;;0.98;;
54263;SDS011;40178;53.042;6.406;2022-09-09T16:56:04;3.40;;;1.70;;
54263;SDS011;40178;53.042;6.406;2022-09-09T16:58:31;2.65;;;0.90;;
54263;SDS011;40178;53.042;6.406;2022-09-09T17:00:57;2.70;;;1.00;;
54263;SDS011;40178;53.042;6.406;2022-09-09T17:03:23;2.85;;;0.85;;
54263;SDS011;40178;53.042;6.406;2022-09-09T17:05:49;3.92;;;1.55;;
54263;SDS011;40178;53.042;6.406;2022-09-09T17:08:15;4.38;;;1.20;;
54263;SDS011;40178;53.042;6.406;2022-09-09T17:10:41;3.67;;;1.10;;
54263;SDS011;40178;53.042;6.406;2022-09-09T17:13:07;5.53;;;1.40;;
54263;SDS011;40178;53.042;6.406;2022-09-09T17:15:33;3.55;;;1.10;;
54263;SDS011;40178;53.042;6.406;2022-09-09T17:17:59;5.30;;;1.27;;
54263;SDS011;40178;53.042;6.406;2022-09-09T17:20:25;4.70;;;1.17;;